Time;durP1;ratioP1;P1;durP2;ratioP2;P2;SDS_P1;SDS_P2;PMS_P1;PMS_P2;Temp;Humidity;BMP_temperature;BMP_pressure;BME280_temperature;BME280_humidity;BME280_pressure;Samples;Min_cycle;Max_cycle;Signal;HPM_P1;HPM_P2
2021/10/11 00:03:28;;;;;;;50.67;33.78;;;8.50;99.90;;;;;;12473903;28;20045;-85
2021/10/11 00:09:32;;;;;;;49.72;31.92;;;8.60;99.90;;;;;;12490352;28;20053;-85
2021/10/11 00:15:34;;;;;;;36.22;23.92;;;8.70;99.90;;;;;;12474422;28;20045;-85
2021/10/11 00:21:36;;;;;;;31.67;20.52;;;8.80;99.90;;;;;;12490732;28;20080;-85
2021/10/11 00:27:38;;;;;;;31.70;20.95;;;9.10;99.90;;;;;;12479107;28;20088;-85
2021/10/11 00:33:40;;;;;;;30.60;19.83;;;9.00;99.90;;;;;;12475135;28;20056;-85
2021/10/11 00:39:42;;;;;;;31.30;19.80;;;9.00;99.90;;;;;;12474731;28;20079;-85
2021/10/11 00:45:44;;;;;;;55.67;34.60;;;8.90;99.90;;;;;;12475338;28;20046;-85
2021/10/11 00:51:46;;;;;;;58.63;36.80;;;8.80;99.90;;;;;;12472156;28;20111;-85
2021/10/11 00:57:48;;;;;;;63.42;38.60;;;8.80;99.90;;;;;;12471977;28;20448;-84
2021/10/11 01:03:50;;;;;;;60.85;39.78;;;9.00;99.90;;;;;;12482192;28;20046;-84
2021/10/11 01:09:52;;;;;;;63.30;39.42;;;9.10;99.90;;;;;;12490148;28;20099;-85
2021/10/11 01:15:55;;;;;;;59.58;38.72;;;9.30;99.90;;;;;;12478963;28;20056;-85
2021/10/11 01:21:57;;;;;;;60.50;38.05;;;9.30;99.90;;;;;;12481008;28;20104;-85
2021/10/11 01:27:59;;;;;;;60.20;36.53;;;9.50;99.90;;;;;;12479747;28;20060;-85
2021/10/11 01:34:01;;;;;;;61.92;38.20;;;9.60;99.90;;;;;;12492970;28;20049;-85
2021/10/11 01:40:06;;;;;;;61.78;37.78;;;9.70;99.90;;;;;;12474548;28;20436;-84
2021/10/11 01:46:07;;;;;;;64.15;38.45;;;9.60;99.90;;;;;;12503118;28;20107;-85
2021/10/11 01:52:09;;;;;;;59.05;36.00;;;9.70;99.90;;;;;;12477494;28;20087;-85
2021/10/11 01:58:11;;;;;;;39.97;26.00;;;9.70;99.90;;;;;;12476834;28;20584;-85
2021/10/11 02:04:13;;;;;;;41.67;25.75;;;9.80;99.90;;;;;;12480717;28;20112;-85
2021/10/11 02:10:15;;;;;;;34.70;21.42;;;9.80;99.90;;;;;;12486022;28;20053;-85
2021/10/11 02:16:16;;;;;;;30.23;20.52;;;9.70;99.90;;;;;;12472842;28;20437;-85
2021/10/11 02:22:18;;;;;;;29.40;21.90;;;9.80;99.90;;;;;;12474596;28;20061;-84
2021/10/11 02:28:21;;;;;;;64.55;38.28;;;9.70;99.90;;;;;;12473418;28;20126;-84
2021/10/11 02:34:23;;;;;;;67.32;41.17;;;9.50;99.90;;;;;;12485299;28;20033;-86
2021/10/11 02:40:25;;;;;;;63.60;40.03;;;9.50;99.90;;;;;;12471702;28;20045;-84
2021/10/11 02:46:28;;;;;;;64.38;40.38;;;9.50;99.90;;;;;;12473869;28;20722;-85
2021/10/11 02:52:32;;;;;;;51.00;30.17;;;9.60;99.90;;;;;;12477558;28;20140;-85
2021/10/11 02:58:34;;;;;;;;;;;9.60;99.90;;;;;;12477543;28;20041;-85
2021/10/11 03:04:36;;;;;;;45.03;28.88;;;9.50;99.90;;;;;;12476139;28;20409;-85
2021/10/11 03:10:38;;;;;;;30.42;21.10;;;9.50;99.90;;;;;;12470276;28;21359;-84
2021/10/11 03:16:39;;;;;;;34.10;22.25;;;9.50;99.90;;;;;;12475155;28;20584;-84
2021/10/11 03:22:41;;;;;;;36.95;26.42;;;9.40;99.90;;;;;;12468848;28;20901;-85
2021/10/11 03:28:44;;;;;;;65.55;38.67;;;9.20;99.90;;;;;;12476592;28;20477;-84
2021/10/11 03:34:46;;;;;;;78.85;44.72;;;9.20;99.90;;;;;;12463208;28;20037;-85
2021/10/11 03:40:48;;;;;;;84.38;44.90;;;9.30;99.90;;;;;;12471883;28;20055;-85
2021/10/11 03:46:50;;;;;;;82.47;46.30;;;9.40;99.90;;;;;;12479739;28;20045;-84
2021/10/11 03:52:51;;;;;;;83.43;45.45;;;9.40;99.90;;;;;;12473901;28;20053;-85
2021/10/11 03:58:53;;;;;;;86.63;46.20;;;9.50;99.90;;;;;;12492686;28;20046;-85
2021/10/11 04:04:55;;;;;;;93.03;47.50;;;9.40;99.90;;;;;;12478273;28;20045;-85
2021/10/11 04:17:05;;;;;;;76.10;44.60;;;9.60;99.90;;;;;;12462837;28;20722;-85
2021/10/11 04:23:06;;;;;;;83.50;43.90;;;9.60;99.90;;;;;;12474406;28;20091;-85
2021/10/11 04:29:08;;;;;;;80.93;42.83;;;9.60;99.90;;;;;;12474982;28;20360;-85
2021/10/11 04:35:10;;;;;;;83.50;44.65;;;9.50;99.90;;;;;;12470810;28;20091;-85
2021/10/11 04:41:12;;;;;;;79.30;43.03;;;9.60;99.90;;;;;;12480602;28;20045;-85
2021/10/11 04:47:14;;;;;;;90.35;44.17;;;9.60;99.90;;;;;;12470274;28;20103;-84
2021/10/11 04:53:16;;;;;;;76.18;41.30;;;9.60;99.90;;;;;;12466878;28;20049;-85
2021/10/11 04:59:18;;;;;;;77.13;40.40;;;9.70;99.90;;;;;;12467221;28;20049;-85
2021/10/11 05:05:20;;;;;;;86.50;38.80;;;9.70;99.90;;;;;;12472744;28;20096;-85
2021/10/11 05:11:21;;;;;;;65.82;33.05;;;9.70;99.90;;;;;;12472697;28;20049;-85
2021/10/11 05:17:23;;;;;;;75.93;37.05;;;9.80;99.90;;;;;;12473600;28;20503;-84
2021/10/11 05:23:25;;;;;;;74.90;37.35;;;9.80;99.90;;;;;;12475455;28;20080;-85
2021/10/11 05:29:27;;;;;;;74.97;37.92;;;9.80;99.90;;;;;;12486256;28;20053;-85
2021/10/11 05:35:29;;;;;;;74.75;36.28;;;9.80;99.90;;;;;;12463823;28;20130;-85
2021/10/11 05:41:30;;;;;;;68.30;34.33;;;9.80;99.90;;;;;;12465344;28;20693;-84
2021/10/11 05:47:32;;;;;;;66.88;32.30;;;9.80;99.90;;;;;;12482882;28;20045;-86
2021/10/11 05:53:34;;;;;;;67.80;34.70;;;9.80;99.90;;;;;;12470899;28;20476;-85
2021/10/11 05:59:36;;;;;;;64.70;33.42;;;9.90;99.90;;;;;;12482523;28;21095;-85
2021/10/11 06:05:38;;;;;;;69.07;32.22;;;9.90;99.90;;;;;;12479628;28;20139;-85
2021/10/11 06:11:41;;;;;;;65.50;31.48;;;9.90;99.90;;;;;;12485844;28;20252;-85
2021/10/11 06:17:43;;;;;;;60.80;30.03;;;9.90;99.90;;;;;;12473784;28;20049;-85
2021/10/11 06:23:46;;;;;;;63.95;31.20;;;9.90;99.90;;;;;;12476225;28;20574;-86
2021/10/11 06:29:48;;;;;;;57.58;29.50;;;9.90;99.90;;;;;;12471306;28;20053;-85
2021/10/11 06:35:50;;;;;;;58.03;29.15;;;10.00;99.90;;;;;;12472640;28;20041;-85
2021/10/11 06:41:52;;;;;;;53.67;26.20;;;10.00;99.90;;;;;;12472528;28;20053;-85
2021/10/11 06:47:54;;;;;;;61.58;28.73;;;10.10;99.90;;;;;;12471095;28;20448;-85
2021/10/11 06:53:56;;;;;;;51.70;25.70;;;10.10;99.90;;;;;;12480857;28;20118;-85
2021/10/11 06:59:58;;;;;;;47.38;25.17;;;10.10;99.90;;;;;;12473298;28;20493;-84
2021/10/11 07:06:05;;;;;;;52.10;24.88;;;10.20;99.90;;;;;;12473605;28;20531;-85
2021/10/11 07:12:07;;;;;;;48.78;23.90;;;10.30;99.90;;;;;;12491169;28;20045;-85
2021/10/11 07:18:09;;;;;;;51.85;24.95;;;10.20;99.90;;;;;;12470870;28;20285;-85
2021/10/11 07:24:12;;;;;;;46.58;24.33;;;10.30;99.90;;;;;;12470999;28;20056;-85
2021/10/11 07:30:14;;;;;;;46.90;22.52;;;10.30;99.90;;;;;;12475221;28;20052;-85
2021/10/11 07:36:16;;;;;;;43.85;21.95;;;10.40;99.90;;;;;;12473968;28;20693;-85
2021/10/11 07:42:18;;;;;;;40.97;19.67;;;10.40;99.90;;;;;;12460713;28;20599;-85
2021/10/11 07:48:20;;;;;;;35.72;19.33;;;10.50;99.90;;;;;;12463667;28;20191;-85
2021/10/11 07:54:21;;;;;;;33.42;17.58;;;10.70;99.90;;;;;;12464510;28;20590;-86
2021/10/11 08:00:24;;;;;;;39.22;17.27;;;10.70;99.90;;;;;;12474863;28;20050;-86
2021/10/11 08:06:27;;;;;;;26.23;12.70;;;10.80;99.90;;;;;;12466068;28;20416;-85
2021/10/11 08:12:29;;;;;;;26.05;13.02;;;10.80;99.90;;;;;;12468999;28;20050;-85
2021/10/11 08:18:31;;;;;;;23.98;11.95;;;10.90;99.90;;;;;;12478477;28;20492;-85
2021/10/11 08:24:33;;;;;;;28.42;10.63;;;10.90;99.90;;;;;;12457376;28;20055;-86
2021/10/11 08:30:36;;;;;;;22.98;10.30;;;10.90;99.90;;;;;;12459452;28;20065;-85
2021/10/11 08:36:38;;;;;;;19.40;8.48;;;10.90;99.90;;;;;;12464716;28;20545;-87
2021/10/11 08:42:40;;;;;;;17.38;7.53;;;11.00;99.90;;;;;;12470136;28;20099;-85
2021/10/11 08:48:43;;;;;;;21.13;7.00;;;11.00;99.90;;;;;;12470720;28;20126;-85
2021/10/11 08:54:44;;;;;;;19.92;6.50;;;11.20;99.90;;;;;;12465243;28;20431;-84
2021/10/11 09:00:46;;;;;;;15.15;5.45;;;11.30;99.90;;;;;;12466592;28;20355;-85
2021/10/11 09:07:06;;;;;;;20.52;6.10;;;11.50;99.90;;;;;;12466957;28;20469;-86
2021/10/11 09:13:11;;;;;;;16.33;4.57;;;11.60;99.90;;;;;;12469639;28;20065;-86
2021/10/11 09:19:25;;;;;;;17.98;5.05;;;11.70;99.90;;;;;;12471209;28;20096;-85
2021/10/11 09:25:40;;;;;;;15.25;4.65;;;11.70;99.90;;;;;;12488132;28;20085;-85
2021/10/11 09:31:47;;;;;;;15.73;3.70;;;11.80;99.90;;;;;;12477236;28;20046;-85
2021/10/11 09:37:52;;;;;;;12.93;3.22;;;11.80;99.90;;;;;;12470550;28;20088;-86
2021/10/11 09:43:58;;;;;;;13.82;3.35;;;11.70;99.90;;;;;;12477720;28;20541;-86
2021/10/11 09:50:06;;;;;;;17.58;3.30;;;11.70;99.90;;;;;;12485919;28;20076;-85
2021/10/11 09:56:08;;;;;;;21.10;3.90;;;11.80;99.90;;;;;;12475872;28;20492;-86
2021/10/11 10:02:11;;;;;;;17.42;3.03;;;11.90;99.90;;;;;;12467469;28;20111;-86
2021/10/11 10:08:21;;;;;;;14.15;2.85;;;12.00;99.90;;;;;;12475479;28;20053;-85
2021/10/11 10:14:26;;;;;;;16.42;3.55;;;12.30;99.90;;;;;;12486851;28;20136;-86
2021/10/11 10:20:28;;;;;;;13.52;3.08;;;12.50;99.90;;;;;;12498283;28;20045;-88
2021/10/11 10:26:36;;;;;;;13.77;2.88;;;12.40;99.90;;;;;;12475156;28;20049;-86
2021/10/11 10:32:38;;;;;;;15.77;2.90;;;12.60;99.90;;;;;;12469444;28;20086;-88
2021/10/11 10:38:40;;;;;;;11.02;3.10;;;12.90;99.90;;;;;;12472935;28;20049;-85
2021/10/11 10:44:46;;;;;;;11.45;2.85;;;13.30;99.90;;;;;;12472220;28;20037;-86
2021/10/11 10:50:48;;;;;;;12.00;3.28;;;13.50;99.90;;;;;;12470689;28;20115;-86
2021/10/11 10:56:53;;;;;;;14.15;2.70;;;13.60;99.90;;;;;;12483036;28;20088;-86
2021/10/11 11:02:55;;;;;;;14.13;2.42;;;13.60;99.90;;;;;;12465186;28;20739;-88
2021/10/11 11:08:59;;;;;;;13.70;2.20;;;13.60;99.90;;;;;;12471002;28;20041;-85
2021/10/11 11:15:03;;;;;;;8.70;2.00;;;13.80;99.90;;;;;;12474612;28;20075;-88
2021/10/11 11:21:07;;;;;;;10.93;2.50;;;14.00;99.90;;;;;;12481612;28;20574;-86
2021/10/11 11:27:09;;;;;;;9.97;1.87;;;13.70;99.90;;;;;;12462658;28;20323;-87
2021/10/11 11:33:14;;;;;;;11.68;1.73;;;13.70;99.90;;;;;;12476852;28;20509;-86
2021/10/11 11:39:17;;;;;;;13.20;2.25;;;13.60;99.90;;;;;;12493123;28;20049;-87
2021/10/11 11:45:21;;;;;;;10.10;1.90;;;13.30;99.90;;;;;;12474867;28;20061;-86
2021/10/11 11:51:23;;;;;;;13.02;2.03;;;13.30;99.90;;;;;;12486458;28;20600;-88
2021/10/11 11:57:25;;;;;;;12.70;1.45;;;13.30;99.90;;;;;;12481407;28;20033;-88
2021/10/11 12:03:30;;;;;;;12.98;1.70;;;13.40;99.90;;;;;;12467907;28;20045;-87
2021/10/11 12:09:32;;;;;;;10.68;1.42;;;13.40;99.90;;;;;;12472124;28;20049;-89
2021/10/11 12:15:35;;;;;;;8.45;1.63;;;13.50;99.90;;;;;;12482204;28;20044;-90
2021/10/11 12:21:39;;;;;;;9.43;1.40;;;13.50;99.90;;;;;;12469280;28;21240;-87
2021/10/11 12:27:41;;;;;;;9.90;1.50;;;13.50;99.90;;;;;;12466709;28;20052;-87
2021/10/11 12:33:43;;;;;;;8.40;1.35;;;13.50;99.90;;;;;;12458901;28;20371;-89
2021/10/11 12:39:46;;;;;;;13.23;1.77;;;13.60;99.90;;;;;;12482361;28;20721;-87
2021/10/11 12:46:03;;;;;;;11.97;2.23;;;13.80;99.90;;;;;;12475805;28;20102;-88
2021/10/11 12:52:06;;;;;;;10.45;1.48;;;13.80;99.90;;;;;;12472044;28;20041;-87
2021/10/11 12:58:08;;;;;;;8.27;1.40;;;13.70;99.90;;;;;;12478512;28;20045;-88
2021/10/11 13:04:10;;;;;;;6.90;1.33;;;14.30;99.90;;;;;;12473828;28;20156;-88
2021/10/11 13:10:14;;;;;;;7.65;1.77;;;14.30;99.90;;;;;;12502322;28;20064;-88
2021/10/11 13:16:15;;;;;;;10.48;1.70;;;14.00;99.90;;;;;;12483210;28;20059;-88
2021/10/11 13:22:18;;;;;;;7.45;1.15;;;13.80;99.90;;;;;;12475031;28;20762;-87
2021/10/11 13:28:25;;;;;;;7.80;1.30;;;13.70;99.90;;;;;;12473022;28;20059;-90
2021/10/11 16:00:27;;;;;;;5.30;1.20;;;12.20;99.90;;;;;;12471396;28;20098;-86
2021/10/11 16:06:29;;;;;;;4.38;1.00;;;12.30;99.90;;;;;;12463355;28;20049;-86
2021/10/11 16:12:33;;;;;;;6.07;1.00;;;12.20;99.90;;;;;;12458638;28;20084;-86
2021/10/11 16:18:36;;;;;;;6.68;1.10;;;12.20;99.90;;;;;;12463323;28;20049;-86
2021/10/11 16:24:38;;;;;;;8.45;1.60;;;12.10;99.90;;;;;;12460868;28;20717;-87
2021/10/11 16:30:42;;;;;;;8.55;1.63;;;12.00;99.90;;;;;;12471011;28;20041;-86
2021/10/11 16:36:43;;;;;;;5.53;1.33;;;12.00;99.90;;;;;;12475531;28;20056;-86
2021/10/11 16:42:46;;;;;;;6.75;1.27;;;11.90;99.90;;;;;;12468579;28;20658;-87
2021/10/11 16:48:48;;;;;;;8.60;2.25;;;11.90;99.90;;;;;;12474397;28;20465;-87
2021/10/11 16:54:50;;;;;;;6.03;1.60;;;11.90;99.90;;;;;;12470921;28;20126;-86
2021/10/11 17:00:52;;;;;;;7.93;1.33;;;11.80;99.90;;;;;;12458936;28;20450;-86
2021/10/11 17:06:54;;;;;;;5.38;1.75;;;11.80;99.90;;;;;;12469450;28;20075;-85
2021/10/11 17:12:57;;;;;;;10.23;1.85;;;11.70;99.90;;;;;;12456665;28;20128;-86
2021/10/11 17:19:01;;;;;;;7.07;1.30;;;11.80;99.90;;;;;;12466904;28;20037;-86
2021/10/11 17:25:03;;;;;;;7.32;1.70;;;11.70;99.90;;;;;;12466413;28;20117;-86
2021/10/11 17:31:05;;;;;;;6.68;1.42;;;11.70;99.90;;;;;;12467816;28;20515;-86
2021/10/11 17:37:07;;;;;;;7.38;2.28;;;11.60;99.90;;;;;;12467375;28;20076;-85
2021/10/11 17:43:09;;;;;;;9.70;1.98;;;11.50;99.90;;;;;;12485225;28;20103;-86
2021/10/11 17:49:11;;;;;;;8.32;1.77;;;11.40;99.90;;;;;;12483366;28;20388;-86
2021/10/11 17:55:14;;;;;;;12.10;1.98;;;11.40;99.90;;;;;;12473533;28;20131;-85
2021/10/11 18:01:17;;;;;;;2.90;1.13;;;11.30;99.90;;;;;;12473267;28;20095;-85
2021/10/11 18:07:19;;;;;;;5.75;1.60;;;11.20;99.90;;;;;;12474264;28;20061;-86
2021/10/11 18:13:21;;;;;;;5.53;1.13;;;11.20;99.90;;;;;;12476700;28;20111;-85
2021/10/11 18:19:23;;;;;;;3.90;1.25;;;11.10;99.90;;;;;;12463008;28;20477;-85
2021/10/11 18:25:25;;;;;;;7.25;1.17;;;11.10;99.90;;;;;;12464552;28;20052;-85
2021/10/11 18:31:27;;;;;;;6.25;1.33;;;11.10;99.90;;;;;;12473644;28;20933;-85
2021/10/11 18:37:29;;;;;;;6.90;1.50;;;11.00;99.90;;;;;;12468501;28;20079;-86
2021/10/11 18:43:31;;;;;;;6.47;1.20;;;10.90;99.90;;;;;;12489364;28;20569;-85
2021/10/11 18:49:34;;;;;;;5.80;1.30;;;11.10;99.90;;;;;;12470471;28;20099;-86
2021/10/11 18:55:36;;;;;;;7.63;1.35;;;11.00;99.90;;;;;;12476962;28;20041;-85
2021/10/11 19:01:40;;;;;;;4.85;1.13;;;11.10;99.90;;;;;;12477092;28;20199;-85
2021/10/11 19:07:42;;;;;;;5.90;1.40;;;11.00;99.90;;;;;;12487710;28;20064;-85
2021/10/11 19:13:46;;;;;;;4.97;1.35;;;11.00;99.90;;;;;;12476447;28;20471;-85
2021/10/11 19:19:48;;;;;;;7.38;1.60;;;11.00;99.90;;;;;;12472333;28;20389;-85
2021/10/11 19:25:50;;;;;;;8.25;1.42;;;11.00;99.90;;;;;;12489836;28;20046;-86
2021/10/11 19:31:52;;;;;;;5.28;1.50;;;11.00;99.90;;;;;;12472469;28;20090;-86
2021/10/11 19:37:54;;;;;;;4.00;1.38;;;10.90;99.90;;;;;;12485234;28;20087;-86
2021/10/11 19:43:56;;;;;;;6.10;1.27;;;10.90;99.90;;;;;;12473363;28;20852;-86
2021/10/11 19:49:58;;;;;;;4.25;1.38;;;10.90;99.90;;;;;;12478398;28;20107;-85
2021/10/11 19:56:00;;;;;;;7.32;1.38;;;10.90;99.90;;;;;;12476133;28;20050;-86
2021/10/11 20:02:02;;;;;;;8.15;1.13;;;10.90;99.90;;;;;;12494306;28;20489;-86
2021/10/11 20:08:04;;;;;;;5.30;1.50;;;10.80;99.90;;;;;;12477913;28;20058;-86
2021/10/11 20:14:09;;;;;;;8.48;1.70;;;10.70;99.90;;;;;;12470821;28;20110;-85
2021/10/11 20:20:13;;;;;;;5.80;1.70;;;10.70;99.90;;;;;;12485050;28;20041;-86
2021/10/11 20:26:15;;;;;;;6.88;1.80;;;10.60;99.90;;;;;;12488252;28;20057;-86
2021/10/11 20:32:17;;;;;;;9.80;2.25;;;10.50;99.90;;;;;;12468183;28;20505;-85
2021/10/11 20:38:19;;;;;;;8.68;2.03;;;10.50;99.90;;;;;;12476366;28;20071;-85
2021/10/11 20:44:21;;;;;;;8.25;1.92;;;10.40;99.90;;;;;;12469853;28;20054;-86
2021/10/11 20:50:23;;;;;;;5.57;1.60;;;10.30;99.90;;;;;;12473347;28;20559;-85
2021/10/11 20:56:25;;;;;;;4.53;1.80;;;10.40;99.90;;;;;;12487791;28;20533;-85
2021/10/11 21:02:27;;;;;;;9.10;1.80;;;10.20;99.90;;;;;;12485739;28;20103;-85
2021/10/11 21:08:29;;;;;;;6.00;1.60;;;10.10;99.90;;;;;;12470255;28;20601;-85
2021/10/11 21:14:31;;;;;;;4.53;1.60;;;10.10;99.90;;;;;;12479613;28;20068;-86
2021/10/11 21:20:34;;;;;;;6.80;1.55;;;10.00;99.90;;;;;;12480155;28;20049;-85
2021/10/11 21:26:37;;;;;;;4.30;1.57;;;10.00;99.90;;;;;;12496380;28;20500;-85
2021/10/11 21:32:39;;;;;;;11.07;1.90;;;9.90;99.90;;;;;;12476670;28;20113;-85
2021/10/11 21:38:40;;;;;;;14.10;2.47;;;9.90;99.90;;;;;;12474349;28;20102;-85
2021/10/11 21:44:42;;;;;;;4.05;1.95;;;9.90;99.90;;;;;;12469867;28;20048;-85
2021/10/11 21:50:44;;;;;;;9.48;2.53;;;9.70;99.90;;;;;;12481140;28;20053;-85
2021/10/11 21:56:48;;;;;;;7.20;2.30;;;9.70;99.90;;;;;;12479022;28;20612;-85
2021/10/11 22:02:50;;;;;;;14.33;2.23;;;9.60;99.90;;;;;;12482079;28;20080;-84
2021/10/11 22:08:52;;;;;;;7.25;2.25;;;9.70;99.90;;;;;;12477480;28;21086;-86
2021/10/11 22:14:54;;;;;;;7.35;2.22;;;9.70;99.90;;;;;;12478810;28;20119;-85
2021/10/11 22:20:55;;;;;;;7.25;2.20;;;9.70;99.90;;;;;;12489489;28;20046;-84
2021/10/11 22:26:57;;;;;;;9.25;2.25;;;9.70;99.90;;;;;;12474604;28;20118;-85
2021/10/11 22:32:59;;;;;;;7.60;1.98;;;9.60;99.90;;;;;;12478296;28;20103;-85
2021/10/11 22:39:02;;;;;;;13.70;2.75;;;9.60;99.90;;;;;;12473193;28;22961;-85
2021/10/11 22:45:05;;;;;;;13.63;2.30;;;9.60;99.90;;;;;;12475847;28;20081;-86
2021/10/11 22:51:07;;;;;;;11.20;2.35;;;9.50;99.90;;;;;;12472085;28;20500;-84
2021/10/11 22:57:09;;;;;;;9.25;2.13;;;9.60;99.90;;;;;;12481655;28;20535;-85
2021/10/11 23:03:11;;;;;;;8.52;2.38;;;9.40;99.90;;;;;;12475535;28;20565;-84
2021/10/11 23:09:14;;;;;;;8.02;2.30;;;9.40;99.90;;;;;;12474983;28;20075;-85
2021/10/11 23:15:16;;;;;;;9.18;2.42;;;9.50;99.90;;;;;;12473120;28;20056;-85
2021/10/11 23:21:18;;;;;;;8.30;2.20;;;9.40;99.90;;;;;;12475152;28;20568;-84
2021/10/11 23:27:20;;;;;;;13.80;2.22;;;9.30;99.90;;;;;;12473816;28;20127;-84
2021/10/11 23:33:22;;;;;;;9.15;2.35;;;9.30;99.90;;;;;;12476565;28;20052;-84
2021/10/11 23:39:24;;;;;;;11.25;2.13;;;9.30;99.90;;;;;;12476419;28;20057;-84
2021/10/11 23:45:26;;;;;;;12.23;2.47;;;9.40;99.90;;;;;;12479701;28;20095;-84
2021/10/11 23:51:27;;;;;;;8.27;2.35;;;9.30;99.90;;;;;;12481495;28;20514;-84
2021/10/11 23:57:29;;;;;;;9.38;2.25;;;9.30;99.90;;;;;;12475271;28;20053;-85
